Time;durP1;ratioP1;P1;durP2;ratioP2;P2;SDS_P1;SDS_P2;PMS_P1;PMS_P2;Temp;Humidity;BMP_temperature;BMP_pressure;BME280_temperature;BME280_humidity;BME280_pressure;Samples;Min_cycle;Max_cycle;Signal;HPM_P1;HPM_P2
2023/04/06 00:02:32;;;;;;;10.73;8.90;;;3.80;47.90;;;;;;6262935;28;20537;-63
2023/04/06 00:05:36;;;;;;;11.93;8.83;;;3.70;48.10;;;;;;6260488;28;20953;-63
2023/04/06 00:08:41;;;;;;;9.50;8.60;;;3.70;48.10;;;;;;6261006;28;20470;-63
2023/04/06 00:11:44;;;;;;;9.80;8.73;;;3.70;48.10;;;;;;6259194;28;20481;-63
2023/04/06 00:14:47;;;;;;;12.90;8.50;;;3.70;47.90;;;;;;6262529;28;20949;-63
2023/04/06 00:17:50;;;;;;;9.63;8.67;;;3.70;47.70;;;;;;6261803;28;20793;-64
2023/04/06 00:20:54;;;;;;;8.77;8.17;;;3.60;47.80;;;;;;6261203;28;20466;-64
2023/04/06 00:23:58;;;;;;;8.63;7.80;;;3.60;48.50;;;;;;6262209;28;20546;-63
2023/04/06 00:27:02;;;;;;;8.70;7.70;;;3.60;48.60;;;;;;6262679;28;20473;-64
2023/04/06 00:30:06;;;;;;;10.70;9.20;;;3.60;48.80;;;;;;6260898;28;20482;-64
2023/04/06 00:33:09;;;;;;;9.97;8.93;;;3.60;48.80;;;;;;6261428;28;20593;-64
2023/04/06 00:36:12;;;;;;;8.90;8.20;;;3.60;48.80;;;;;;6261443;28;20471;-64
2023/04/06 00:39:17;;;;;;;7.87;7.17;;;3.50;49.00;;;;;;6262981;28;20866;-64
2023/04/06 00:42:25;;;;;;;8.37;7.57;;;3.50;49.40;;;;;;6255124;28;20481;-65
2023/04/06 00:45:29;;;;;;;8.60;7.70;;;3.40;49.40;;;;;;6258256;28;20459;-65
2023/04/06 00:48:32;;;;;;;9.03;6.60;;;3.40;49.40;;;;;;6261330;28;20434;-65
2023/04/06 00:51:35;;;;;;;11.13;7.07;;;3.40;49.60;;;;;;6262241;28;20478;-65
2023/04/06 00:54:40;;;;;;;7.73;7.10;;;3.30;49.60;;;;;;6258932;28;20465;-64
2023/04/06 00:57:43;;;;;;;8.30;7.30;;;3.20;49.70;;;;;;6254105;28;20911;-65
2023/04/06 01:00:46;;;;;;;7.33;6.70;;;3.20;49.80;;;;;;6254546;28;20459;-65
2023/04/06 01:03:50;;;;;;;9.17;8.03;;;3.20;50.20;;;;;;6254401;28;20469;-65
2023/04/06 01:06:53;;;;;;;9.33;7.77;;;3.20;50.20;;;;;;6254515;28;20468;-65
2023/04/06 01:09:58;;;;;;;8.70;6.07;;;3.20;50.20;;;;;;6254379;28;20481;-64
2023/04/06 01:13:01;;;;;;;8.40;7.60;;;3.20;50.20;;;;;;6254075;28;20462;-64
2023/04/06 01:16:05;;;;;;;7.40;6.50;;;3.10;50.10;;;;;;6253874;28;20478;-64
2023/04/06 01:19:10;;;;;;;10.77;9.77;;;3.20;50.20;;;;;;6245344;28;20486;-63
2023/04/06 01:22:17;;;;;;;11.20;6.60;;;3.10;50.10;;;;;;6254011;28;20483;-63
2023/04/06 01:25:20;;;;;;;9.93;6.97;;;3.00;51.00;;;;;;6253933;28;20475;-64
2023/04/06 01:28:23;;;;;;;8.50;6.40;;;3.00;50.90;;;;;;6253825;28;20478;-64
2023/04/06 01:31:27;;;;;;;9.60;6.80;;;3.00;51.00;;;;;;6253438;28;20984;-64
2023/04/06 01:34:31;;;;;;;7.67;6.10;;;2.90;50.80;;;;;;6253659;28;20517;-64
2023/04/06 01:37:35;;;;;;;7.00;6.27;;;2.90;50.80;;;;;;6253405;28;20814;-64
2023/04/06 01:40:38;;;;;;;7.90;7.20;;;2.80;51.10;;;;;;6253459;28;20475;-64
2023/04/06 01:43:41;;;;;;;10.17;7.13;;;2.80;51.10;;;;;;6253419;28;20470;-64
2023/04/06 01:46:45;;;;;;;8.27;7.47;;;2.80;51.40;;;;;;6253707;28;20604;-64
2023/04/06 01:49:48;;;;;;;8.57;7.97;;;2.80;51.40;;;;;;6253398;28;20475;-64
2023/04/06 01:52:53;;;;;;;12.53;9.67;;;2.70;51.70;;;;;;6253542;28;20478;-64
2023/04/06 01:55:56;;;;;;;10.10;9.03;;;2.80;52.00;;;;;;6253160;28;20475;-65
2023/04/06 01:58:59;;;;;;;9.33;8.43;;;2.80;51.90;;;;;;6253078;28;20466;-64
2023/04/06 02:02:02;;;;;;;7.03;6.43;;;2.80;51.90;;;;;;6253449;28;20475;-64
2023/04/06 02:05:06;;;;;;;8.10;7.40;;;2.70;51.60;;;;;;6253103;28;20550;-64
2023/04/06 02:08:10;;;;;;;6.67;6.07;;;2.70;51.50;;;;;;6252897;28;20784;-64
2023/04/06 02:11:14;;;;;;;7.37;6.03;;;2.70;51.70;;;;;;6253093;28;20471;-64
2023/04/06 02:14:17;;;;;;;6.30;5.63;;;2.70;52.00;;;;;;6253391;28;20810;-64
2023/04/06 02:17:20;;;;;;;7.53;6.43;;;2.70;52.00;;;;;;6266930;28;20482;-63
2023/04/06 02:20:23;;;;;;;6.53;6.00;;;2.60;52.20;;;;;;6264364;28;20506;-64
2023/04/06 02:23:27;;;;;;;8.80;6.83;;;2.60;52.70;;;;;;6252811;28;20475;-64
2023/04/06 02:26:33;;;;;;;7.93;6.70;;;2.60;53.00;;;;;;6252432;28;20536;-63
2023/04/06 02:29:36;;;;;;;8.70;7.00;;;2.50;53.20;;;;;;6252087;28;20485;-63
2023/04/06 02:32:39;;;;;;;8.13;6.90;;;2.50;53.40;;;;;;6252286;28;20479;-63
2023/04/06 02:35:45;;;;;;;11.20;6.37;;;2.50;53.40;;;;;;6252098;28;20561;-62
2023/04/06 02:38:49;;;;;;;6.73;6.10;;;2.50;53.70;;;;;;6252103;28;20536;-62
2023/04/06 02:41:52;;;;;;;8.13;5.80;;;2.50;53.50;;;;;;6252005;28;20482;-62
2023/04/06 02:44:56;;;;;;;8.50;6.70;;;2.40;53.60;;;;;;6251567;28;20794;-63
2023/04/06 02:47:59;;;;;;;7.03;5.97;;;2.40;53.60;;;;;;6251951;28;20471;-64
2023/04/06 02:51:02;;;;;;;8.00;6.37;;;2.40;53.80;;;;;;6251686;28;20495;-64
2023/04/06 02:54:06;;;;;;;6.97;6.33;;;2.30;53.80;;;;;;6251631;28;20483;-64
2023/04/06 02:57:10;;;;;;;5.93;5.53;;;2.30;53.60;;;;;;6251577;28;20467;-64
2023/04/06 03:00:16;;;;;;;6.30;5.70;;;2.30;53.70;;;;;;6251710;28;20818;-64
2023/04/06 03:03:19;;;;;;;9.47;6.63;;;2.30;53.80;;;;;;6253425;28;20525;-63
2023/04/06 03:06:22;;;;;;;7.30;5.90;;;2.30;53.70;;;;;;6252382;28;20490;-64
2023/04/06 03:09:30;;;;;;;6.17;5.57;;;2.20;53.70;;;;;;6251274;28;20470;-63
2023/04/06 03:12:33;;;;;;;5.63;5.13;;;2.30;53.80;;;;;;6251241;28;20750;-63
2023/04/06 03:15:36;;;;;;;11.80;6.07;;;2.30;53.80;;;;;;6251525;28;20931;-63
2023/04/06 03:18:39;;;;;;;5.63;5.10;;;2.20;53.60;;;;;;6251089;28;20922;-64
2023/04/06 03:21:43;;;;;;;7.70;5.67;;;2.10;54.60;;;;;;6250963;28;20486;-64
2023/04/06 03:24:47;;;;;;;6.53;5.93;;;2.10;54.20;;;;;;6250960;28;20455;-64
2023/04/06 03:27:50;;;;;;;6.37;5.77;;;2.10;54.90;;;;;;6251429;28;20459;-63
2023/04/06 03:30:54;;;;;;;6.17;5.57;;;2.10;54.60;;;;;;6251063;28;20458;-63
2023/04/06 03:33:57;;;;;;;6.33;5.60;;;2.10;54.50;;;;;;6250983;28;20473;-63
2023/04/06 03:37:00;;;;;;;7.77;6.57;;;2.10;54.70;;;;;;6251185;28;20480;-64
2023/04/06 03:40:16;;;;;;;9.10;6.57;;;2.00;54.70;;;;;;6252008;28;21001;-64
2023/04/06 03:43:19;;;;;;;7.00;6.30;;;2.00;54.70;;;;;;6251033;28;20475;-64
2023/04/06 03:46:22;;;;;;;6.10;5.57;;;2.00;54.90;;;;;;6251251;28;20475;-64
2023/04/06 03:49:25;;;;;;;7.40;5.50;;;1.90;54.80;;;;;;6250836;28;20481;-64
2023/04/06 03:52:28;;;;;;;9.83;5.83;;;1.90;55.00;;;;;;6251140;28;20470;-64
2023/04/06 03:55:33;;;;;;;6.00;5.50;;;1.90;55.10;;;;;;6250438;28;20486;-64
2023/04/06 03:58:36;;;;;;;10.13;5.90;;;1.80;55.20;;;;;;6250388;28;20966;-64
2023/04/06 04:01:40;;;;;;;5.73;5.10;;;1.80;55.10;;;;;;6251833;28;20536;-64
2023/04/06 04:04:43;;;;;;;6.37;5.77;;;1.80;55.10;;;;;;6250563;28;20474;-64
2023/04/06 04:07:46;;;;;;;6.93;5.83;;;1.80;55.10;;;;;;6250498;28;20467;-64
2023/04/06 04:10:50;;;;;;;6.70;6.10;;;1.80;55.20;;;;;;6250212;28;20954;-64
2023/04/06 04:13:54;;;;;;;9.47;6.07;;;1.80;55.20;;;;;;6249801;28;20801;-64
2023/04/06 04:16:57;;;;;;;6.47;5.97;;;1.80;55.20;;;;;;6249762;28;20490;-63
2023/04/06 04:20:00;;;;;;;5.90;5.40;;;1.80;55.40;;;;;;6250151;28;20611;-62
2023/04/06 04:23:03;;;;;;;6.63;6.00;;;1.70;55.40;;;;;;6249541;28;20481;-63
2023/04/06 04:26:08;;;;;;;7.60;5.57;;;1.70;55.50;;;;;;6250222;28;20482;-63
2023/04/06 04:29:11;;;;;;;7.80;6.10;;;1.70;55.50;;;;;;6248662;28;20943;-63
2023/04/06 04:32:14;;;;;;;6.63;6.03;;;1.80;55.50;;;;;;6241102;28;20600;-63
2023/04/06 04:35:17;;;;;;;5.43;4.97;;;1.80;55.70;;;;;;6249511;28;20459;-63
2023/04/06 04:38:21;;;;;;;5.97;5.37;;;1.70;55.70;;;;;;6249955;28;20467;-63
2023/04/06 04:41:25;;;;;;;6.00;5.27;;;1.70;55.60;;;;;;6250675;28;20516;-64
2023/04/06 04:44:28;;;;;;;8.77;5.47;;;1.70;55.80;;;;;;6249498;28;20970;-64
2023/04/06 04:47:31;;;;;;;5.87;5.10;;;1.70;56.10;;;;;;6249930;28;20474;-64
2023/04/06 04:50:35;;;;;;;7.33;6.03;;;1.70;56.10;;;;;;6249410;28;20485;-64
2023/04/06 04:53:38;;;;;;;7.87;6.40;;;1.70;56.00;;;;;;6249434;28;20482;-64
2023/04/06 04:56:42;;;;;;;7.17;5.80;;;1.70;56.10;;;;;;6249219;28;20477;-64
2023/04/06 04:59:45;;;;;;;7.03;5.70;;;1.70;55.90;;;;;;6249424;28;20791;-64
2023/04/06 05:02:48;;;;;;;8.23;6.20;;;1.70;56.00;;;;;;6248893;28;20486;-64
2023/04/06 05:05:52;;;;;;;7.80;5.90;;;1.70;56.70;;;;;;6249290;28;20528;-63
2023/04/06 05:08:55;;;;;;;10.30;6.30;;;1.80;56.70;;;;;;6250088;28;20474;-63
2023/04/06 05:11:59;;;;;;;9.53;6.80;;;1.80;56.70;;;;;;6249848;28;20467;-63
2023/04/06 05:15:03;;;;;;;6.63;6.13;;;1.80;56.20;;;;;;6249496;28;21056;-63
2023/04/06 05:18:06;;;;;;;8.33;6.47;;;1.80;56.90;;;;;;6249626;28;20478;-63
2023/04/06 05:21:12;;;;;;;8.83;6.13;;;1.80;56.50;;;;;;6249497;28;20467;-64
2023/04/06 05:24:16;;;;;;;7.77;7.07;;;1.90;56.30;;;;;;6249235;28;20467;-64
2023/04/06 05:27:20;;;;;;;8.47;6.60;;;1.90;56.50;;;;;;6249009;28;20462;-64
2023/04/06 05:30:24;;;;;;;11.67;6.73;;;2.00;56.20;;;;;;6249129;28;21003;-63
2023/04/06 05:33:27;;;;;;;11.60;7.57;;;2.00;56.10;;;;;;6249094;28;20463;-64
2023/04/06 05:36:31;;;;;;;11.10;7.57;;;2.10;56.20;;;;;;6244120;28;20482;-64
2023/04/06 05:39:38;;;;;;;11.90;7.37;;;2.10;56.00;;;;;;6249133;28;20447;-64
2023/04/06 05:42:43;;;;;;;7.90;5.80;;;2.20;55.80;;;;;;6253396;28;20504;-64
2023/04/06 05:45:47;;;;;;;7.93;7.13;;;2.30;55.70;;;;;;6253722;28;20459;-64
2023/04/06 05:48:50;;;;;;;8.90;8.10;;;2.40;55.60;;;;;;6253770;28;20496;-64
2023/04/06 05:51:53;;;;;;;9.90;7.20;;;2.40;55.40;;;;;;6253789;28;20454;-64
2023/04/06 05:54:56;;;;;;;9.20;7.33;;;2.50;55.40;;;;;;6253478;28;20466;-64
2023/04/06 05:58:00;;;;;;;8.90;7.43;;;2.60;55.60;;;;;;6253635;28;20459;-64
2023/04/06 06:01:04;;;;;;;11.17;7.10;;;2.70;55.50;;;;;;6252927;28;20478;-64
2023/04/06 06:04:07;;;;;;;7.57;6.87;;;2.90;54.90;;;;;;6252696;28;20478;-63
2023/04/06 06:07:11;;;;;;;8.40;6.83;;;2.90;54.50;;;;;;6253189;28;20474;-63
2023/04/06 06:10:14;;;;;;;7.97;6.00;;;3.00;54.40;;;;;;6253067;28;20475;-64
2023/04/06 06:13:18;;;;;;;8.70;5.47;;;3.10;54.00;;;;;;6253090;28;20483;-64
2023/04/06 06:16:22;;;;;;;9.07;6.57;;;3.30;53.60;;;;;;6254374;28;20483;-64
2023/04/06 06:19:28;;;;;;;9.13;6.37;;;3.50;53.40;;;;;;6254501;28;20481;-64
2023/04/06 06:22:31;;;;;;;8.67;6.03;;;3.70;52.60;;;;;;6263344;28;20796;-64
2023/04/06 06:25:34;;;;;;;7.83;5.80;;;4.00;52.00;;;;;;6261694;28;20965;-65
2023/04/06 06:28:38;;;;;;;7.47;6.57;;;4.40;51.70;;;;;;6276872;28;20481;-65
2023/04/06 06:31:42;;;;;;;7.70;5.53;;;5.90;51.20;;;;;;6277506;28;20466;-65
2023/04/06 06:34:45;;;;;;;5.97;5.30;;;8.30;47.00;;;;;;6278283;28;20482;-63
2023/04/06 06:37:48;;;;;;;7.00;5.27;;;10.70;41.40;;;;;;6276865;28;20474;-63
2023/04/06 06:40:51;;;;;;;6.40;5.47;;;12.50;37.40;;;;;;6276963;28;20470;-63
2023/04/06 06:43:56;;;;;;;7.03;5.67;;;14.10;33.50;;;;;;6276748;28;20493;-64
2023/04/06 06:46:59;;;;;;;7.10;5.27;;;15.10;30.20;;;;;;6276909;28;20478;-64
2023/04/06 06:50:02;;;;;;;6.23;5.00;;;16.00;29.10;;;;;;6276807;28;20474;-64
2023/04/06 06:53:06;;;;;;;7.73;5.30;;;17.10;28.10;;;;;;6275410;28;20548;-64
2023/04/06 06:56:09;;;;;;;8.20;5.53;;;17.80;26.50;;;;;;6276625;28;20476;-64
2023/04/06 06:59:13;;;;;;;8.60;5.87;;;18.60;25.50;;;;;;6277115;28;20774;-64
2023/04/06 07:02:17;;;;;;;7.10;5.30;;;19.40;25.00;;;;;;6277047;28;20462;-64
2023/04/06 07:05:20;;;;;;;7.00;5.80;;;19.80;24.00;;;;;;6276001;28;20471;-64
2023/04/06 07:08:30;;;;;;;12.53;5.73;;;20.60;23.20;;;;;;6275567;28;20244;-65
2023/04/06 07:11:34;;;;;;;6.13;4.60;;;21.30;22.50;;;;;;6275300;28;20228;-65
2023/04/06 07:14:38;;;;;;;7.50;5.57;;;21.80;20.90;;;;;;6276189;28;20224;-65
2023/04/06 07:17:43;;;;;;;8.70;6.80;;;22.30;20.30;;;;;;6276310;28;20227;-65
2023/04/06 07:20:46;;;;;;;11.20;7.13;;;23.00;20.10;;;;;;6276309;28;20234;-66
2023/04/06 07:23:50;;;;;;;13.23;7.83;;;23.90;19.90;;;;;;6276136;28;20227;-65
2023/04/06 07:26:53;;;;;;;9.33;6.80;;;24.60;18.80;;;;;;6276069;28;20250;-65
2023/04/06 07:29:58;;;;;;;6.93;6.17;;;24.90;18.30;;;;;;6276133;28;20224;-65
2023/04/06 07:33:01;;;;;;;8.07;6.70;;;25.50;17.80;;;;;;6276048;28;20745;-66
2023/04/06 07:36:05;;;;;;;9.73;6.53;;;25.90;17.10;;;;;;6275367;28;20569;-65
2023/04/06 07:39:09;;;;;;;7.30;6.60;;;26.00;16.40;;;;;;6275978;28;20382;-66
2023/04/06 07:42:12;;;;;;;9.90;8.07;;;26.10;16.80;;;;;;6260351;28;20659;-65
2023/04/06 07:45:16;;;;;;;8.10;7.30;;;27.10;16.20;;;;;;6232548;28;20239;-64
2023/04/06 07:48:20;;;;;;;8.93;7.13;;;28.00;15.80;;;;;;6250720;28;20223;-64
2023/04/06 07:51:23;;;;;;;14.03;7.33;;;28.10;15.20;;;;;;6250329;28;20228;-65
2023/04/06 07:54:26;;;;;;;8.83;6.53;;;28.70;14.70;;;;;;6263912;28;20650;-65
2023/04/06 07:57:29;;;;;;;9.57;7.20;;;29.00;14.20;;;;;;6259770;28;20241;-65
2023/04/06 08:00:34;;;;;;;6.43;5.83;;;29.20;14.00;;;;;;6256089;28;20531;-65
2023/04/06 08:03:37;;;;;;;7.00;6.40;;;29.20;13.60;;;;;;6262059;28;20537;-65
2023/04/06 08:06:41;;;;;;;9.50;6.57;;;29.30;13.60;;;;;;6274722;28;20513;-65
2023/04/06 08:09:44;;;;;;;10.63;7.37;;;30.20;13.40;;;;;;6275198;28;20210;-66
2023/04/06 08:12:47;;;;;;;12.25;7.53;;;31.10;13.00;;;;;;6274635;28;20522;-65
2023/04/06 08:15:53;;;;;;;9.13;7.25;;;31.70;12.30;;;;;;6270492;28;20219;-64
2023/04/06 08:18:56;;;;;;;9.65;7.10;;;32.20;12.00;;;;;;6254683;28;20231;-64
2023/04/06 08:21:59;;;;;;;8.65;6.80;;;33.00;11.70;;;;;;6249768;28;20227;-63
2023/04/06 08:25:02;;;;;;;8.32;6.30;;;32.80;11.40;;;;;;6250121;28;20224;-64
2023/04/06 08:28:06;;;;;;;11.18;7.60;;;33.40;10.90;;;;;;6250026;28;20219;-61
2023/04/06 08:31:10;;;;;;;7.43;6.72;;;33.80;11.00;;;;;;6249798;28;20242;-62
2023/04/06 08:34:13;;;;;;;9.32;7.13;;;34.90;10.30;;;;;;6249802;28;20235;-64
2023/04/06 08:37:17;;;;;;;5.75;5.25;;;35.20;9.80;;;;;;6249646;28;20266;-62
2023/04/06 08:40:20;;;;;;;7.97;5.75;;;35.80;9.40;;;;;;6249518;28;20231;-65
2023/04/06 08:43:24;;;;;;;5.80;5.28;;;35.30;9.60;;;;;;6249389;28;20302;-63
2023/04/06 08:46:31;;;;;;;6.18;4.72;;;35.60;9.60;;;;;;6245345;28;20231;-64
2023/04/06 08:49:35;;;;;;;5.63;5.13;;;36.90;8.50;;;;;;6249506;28;20239;-64
2023/04/06 08:52:40;;;;;;;6.10;5.50;;;38.00;8.10;;;;;;6249728;28;20238;-63
2023/04/06 08:55:44;;;;;;;5.10;4.70;;;37.70;7.30;;;;;;6249388;28;20271;-64
2023/04/06 08:58:48;;;;;;;5.07;4.68;;;37.60;7.50;;;;;;6249550;28;20684;-63
2023/04/06 09:01:55;;;;;;;4.80;4.40;;;38.10;7.10;;;;;;6253940;28;20662;-64
2023/04/06 09:04:58;;;;;;;3.88;3.45;;;38.40;6.40;;;;;;6226784;28;20251;-63
2023/04/06 09:08:02;;;;;;;4.63;4.20;;;39.10;6.90;;;;;;6249797;28;20234;-65
2023/04/06 09:11:05;;;;;;;4.10;3.80;;;39.60;7.60;;;;;;6225560;28;20235;-63
2023/04/06 09:14:08;;;;;;;4.60;4.20;;;39.70;6.10;;;;;;6239212;28;20314;-62
2023/04/06 09:17:22;;;;;;;4.18;3.83;;;38.30;6.00;;;;;;6252739;28;20301;-63
2023/04/06 09:20:28;;;;;;;4.22;3.83;;;38.30;6.20;;;;;;6254339;28;20316;-63
2023/04/06 09:23:31;;;;;;;4.50;3.33;;;38.90;5.90;;;;;;6238037;28;20236;-62
2023/04/06 09:26:45;;;;;;;4.03;3.42;;;39.50;5.80;;;;;;6229765;28;20247;-63
2023/04/06 09:29:49;;;;;;;4.40;4.00;;;39.70;5.70;;;;;;6229345;28;20241;-64
2023/04/06 09:32:55;;;;;;;4.18;3.60;;;39.70;5.70;;;;;;6248443;28;20228;-63
2023/04/06 09:35:59;;;;;;;3.65;3.22;;;38.50;5.80;;;;;;6253402;28;20671;-62
2023/04/06 09:39:04;;;;;;;4.10;3.70;;;38.50;6.30;;;;;;6245170;28;20226;-64
2023/04/06 09:42:07;;;;;;;4.47;4.18;;;39.00;5.80;;;;;;6250162;28;20223;-64
2023/04/06 09:45:11;;;;;;;3.80;3.50;;;39.70;5.90;;;;;;6229102;28;20587;-63
2023/04/06 09:48:16;;;;;;;4.32;3.80;;;40.50;5.60;;;;;;6230469;28;20243;-64
2023/04/06 09:51:20;;;;;;;4.65;4.15;;;40.60;5.30;;;;;;6246055;28;20220;-63
2023/04/06 09:54:25;;;;;;;6.40;4.57;;;40.20;5.60;;;;;;6245216;28;20254;-64
2023/04/06 09:57:33;;;;;;;4.05;3.35;;;37.70;6.00;;;;;;6253084;28;20238;-64
2023/04/06 10:00:45;;;;;;;4.03;3.63;;;35.80;6.90;;;;;;6270256;28;20211;-63
2023/04/06 10:03:55;;;;;;;3.60;3.38;;;33.90;7.80;;;;;;6262799;28;20264;-63
2023/04/06 10:07:00;;;;;;;4.00;3.60;;;30.30;8.70;;;;;;6263444;28;20246;-63
2023/04/06 10:10:04;;;;;;;4.60;3.20;;;28.40;10.60;;;;;;6277983;28;20249;-64
2023/04/06 10:13:09;;;;;;;3.90;3.50;;;27.10;12.00;;;;;;6269566;28;20227;-64
2023/04/06 10:16:15;;;;;;;3.50;3.20;;;25.90;12.30;;;;;;6255873;28;20235;-64
2023/04/06 10:19:25;;;;;;;3.70;3.30;;;24.80;12.10;;;;;;6259048;28;20311;-64
2023/04/06 10:22:36;;;;;;;4.80;3.40;;;23.60;13.20;;;;;;6262325;28;20224;-65
2023/04/06 10:25:39;;;;;;;4.10;3.03;;;22.00;13.40;;;;;;6263698;28;20228;-64
2023/04/06 10:28:43;;;;;;;3.37;2.97;;;20.50;15.00;;;;;;6262885;28;20227;-64
2023/04/06 10:31:50;;;;;;;5.63;3.10;;;19.50;16.20;;;;;;6261327;28;20289;-64
2023/04/06 10:35:05;;;;;;;2.87;2.67;;;18.90;17.00;;;;;;6259654;28;20796;-64
2023/04/06 10:38:08;;;;;;;3.07;2.87;;;18.40;16.30;;;;;;6263089;28;20515;-64
2023/04/06 10:41:13;;;;;;;3.30;3.00;;;18.00;17.70;;;;;;6258343;28;20228;-64
2023/04/06 10:44:21;;;;;;;3.97;3.10;;;17.60;16.80;;;;;;6260377;28;20247;-63
2023/04/06 10:47:25;;;;;;;3.07;2.87;;;17.30;17.60;;;;;;6265474;28;20228;-64
2023/04/06 10:50:31;;;;;;;3.90;2.77;;;17.20;17.90;;;;;;6264835;28;20577;-64
2023/04/06 10:53:35;;;;;;;4.03;2.33;;;17.00;19.20;;;;;;6265039;28;20479;-61
2023/04/06 10:56:39;;;;;;;6.30;3.03;;;17.20;17.80;;;;;;6252486;28;20765;-61
2023/04/06 10:59:44;;;;;;;3.60;2.93;;;17.10;17.30;;;;;;6251687;28;20479;-61
2023/04/06 11:02:48;;;;;;;2.93;2.00;;;17.00;17.60;;;;;;6251813;28;20797;-61
2023/04/06 11:05:52;;;;;;;3.27;2.93;;;16.60;16.80;;;;;;6251738;28;20486;-61
2023/04/06 11:08:56;;;;;;;3.10;2.30;;;16.50;17.60;;;;;;6252240;28;20478;-61
2023/04/06 11:12:00;;;;;;;3.30;2.00;;;16.60;17.60;;;;;;6254375;28;20477;-61
2023/04/06 11:15:05;;;;;;;4.00;2.40;;;16.90;17.30;;;;;;6251445;28;20483;-62
2023/04/06 11:18:09;;;;;;;3.30;2.17;;;17.10;17.50;;;;;;6251327;28;20522;-62
2023/04/06 11:21:13;;;;;;;2.37;2.17;;;17.20;17.20;;;;;;6251338;28;20475;-60
2023/04/06 11:24:19;;;;;;;3.07;2.30;;;17.20;16.90;;;;;;6250742;28;20475;-61
2023/04/06 11:27:22;;;;;;;2.37;2.17;;;16.90;17.30;;;;;;6250642;28;20572;-60
2023/04/06 11:30:25;;;;;;;2.57;2.17;;;17.00;17.90;;;;;;6250920;28;20482;-60
2023/04/06 11:33:30;;;;;;;5.60;3.17;;;16.90;17.00;;;;;;6250466;28;20482;-60
2023/04/06 11:36:35;;;;;;;3.80;2.77;;;16.50;16.80;;;;;;6250978;28;21027;-60
2023/04/06 11:39:40;;;;;;;3.43;2.10;;;16.40;17.40;;;;;;6250031;28;20474;-60
2023/04/06 11:42:52;;;;;;;3.87;2.13;;;16.40;17.80;;;;;;6256111;28;20434;-60
2023/04/06 11:46:02;;;;;;;2.97;2.00;;;16.50;17.70;;;;;;6275492;28;20459;-60
2023/04/06 11:49:06;;;;;;;2.53;2.33;;;16.30;16.90;;;;;;6275856;28;20462;-60
2023/04/06 11:52:18;;;;;;;2.47;1.90;;;16.40;17.60;;;;;;6252750;28;20470;-60
2023/04/06 11:55:21;;;;;;;3.00;1.80;;;16.10;17.10;;;;;;6251095;28;20471;-60
2023/04/06 11:58:25;;;;;;;1.83;1.73;;;16.10;17.60;;;;;;6250734;28;20486;-60
2023/04/06 12:01:28;;;;;;;1.80;1.67;;;16.10;17.20;;;;;;6250424;28;20752;-61
2023/04/06 12:04:31;;;;;;;2.70;2.00;;;16.00;17.10;;;;;;6250345;28;20475;-60
2023/04/06 12:07:36;;;;;;;2.30;2.00;;;15.90;17.20;;;;;;6250057;28;20529;-59
2023/04/06 12:10:40;;;;;;;2.50;2.10;;;15.50;17.50;;;;;;6253241;28;20467;-60
2023/04/06 12:13:43;;;;;;;1.83;1.70;;;15.40;17.90;;;;;;6253456;28;20675;-60
2023/04/06 12:16:49;;;;;;;2.87;1.80;;;15.30;18.00;;;;;;6250264;28;20521;-60
2023/04/06 12:19:52;;;;;;;3.10;2.20;;;15.30;17.70;;;;;;6250011;28;20475;-60
2023/04/06 12:22:58;;;;;;;3.07;2.23;;;15.30;18.00;;;;;;6250795;28;20482;-63
2023/04/06 12:26:02;;;;;;;8.77;4.60;;;15.40;18.20;;;;;;6253562;28;20617;-62
2023/04/06 12:29:06;;;;;;;2.00;1.67;;;15.50;18.10;;;;;;6250129;28;20501;-60
2023/04/06 12:32:10;;;;;;;3.03;1.50;;;15.80;17.90;;;;;;6249508;28;20621;-61
2023/04/06 12:35:15;;;;;;;6.90;2.40;;;16.10;17.90;;;;;;6249711;28;20812;-61
2023/04/06 12:38:20;;;;;;;2.33;1.60;;;16.40;17.60;;;;;;6249865;28;20489;-63
2023/04/06 12:41:24;;;;;;;2.00;1.90;;;16.50;17.00;;;;;;6248777;28;20471;-61
2023/04/06 12:44:27;;;;;;;4.23;1.87;;;16.50;17.50;;;;;;6268986;28;20473;-61
2023/04/06 12:47:31;;;;;;;3.83;2.30;;;16.40;17.40;;;;;;6275312;28;20793;-62
2023/04/06 12:50:34;;;;;;;2.17;1.97;;;16.40;17.70;;;;;;6260992;28;20486;-63
2023/04/06 12:53:39;;;;;;;2.70;2.43;;;16.40;17.80;;;;;;6254573;28;20475;-62
2023/04/06 12:56:42;;;;;;;1.73;1.50;;;16.60;18.10;;;;;;6253948;28;20467;-62
2023/04/06 12:59:46;;;;;;;1.73;1.60;;;16.70;17.60;;;;;;6262300;28;20474;-61
2023/04/06 13:02:49;;;;;;;3.57;2.03;;;16.90;17.30;;;;;;6279439;28;20484;-62
2023/04/06 13:05:52;;;;;;;1.87;1.77;;;16.60;17.30;;;;;;6278809;28;20789;-64
2023/04/06 13:08:57;;;;;;;2.20;1.63;;;16.50;17.50;;;;;;6263254;28;20483;-61
2023/04/06 13:12:00;;;;;;;2.33;1.73;;;16.40;17.00;;;;;;6268478;28;20488;-61
2023/04/06 13:15:04;;;;;;;2.77;1.90;;;16.20;16.80;;;;;;6254470;28;20970;-62
2023/04/06 13:18:08;;;;;;;2.90;1.97;;;16.10;17.60;;;;;;6253663;28;20463;-62
2023/04/06 13:21:15;;;;;;;2.90;1.70;;;16.00;17.10;;;;;;6254021;28;20474;-62
2023/04/06 13:24:21;;;;;;;1.93;1.73;;;15.90;17.60;;;;;;6253309;28;20533;-62
2023/04/06 13:27:24;;;;;;;2.83;1.90;;;15.70;17.60;;;;;;6253996;28;20505;-61
2023/04/06 13:30:28;;;;;;;1.67;1.57;;;15.70;18.70;;;;;;6254143;28;20501;-63
2023/04/06 13:33:32;;;;;;;1.67;1.57;;;15.80;18.80;;;;;;6253779;28;20471;-63
2023/04/06 13:36:35;;;;;;;2.13;1.40;;;15.90;17.80;;;;;;6253157;28;20455;-61
2023/04/06 13:39:40;;;;;;;3.93;1.63;;;15.40;17.50;;;;;;6253128;28;20439;-62
2023/04/06 13:42:44;;;;;;;2.37;1.80;;;15.30;17.90;;;;;;6258630;28;20449;-62
2023/04/06 13:45:51;;;;;;;4.70;1.63;;;15.30;18.50;;;;;;6278122;28;20496;-63
2023/04/06 13:49:00;;;;;;;2.00;1.33;;;15.40;18.60;;;;;;6278292;28;20469;-62
2023/04/06 13:52:04;;;;;;;2.13;2.03;;;15.50;18.40;;;;;;6263867;28;20467;-62
2023/04/06 13:55:09;;;;;;;1.53;1.43;;;15.60;18.10;;;;;;6276030;28;20477;-62
2023/04/06 13:58:13;;;;;;;1.20;1.10;;;15.60;18.30;;;;;;6278404;28;20955;-62
2023/04/06 14:01:16;;;;;;;2.20;1.57;;;15.60;18.40;;;;;;6277480;28;20485;-63
2023/04/06 14:04:20;;;;;;;2.27;1.73;;;15.70;18.40;;;;;;6266083;28;20962;-62
2023/04/06 14:07:23;;;;;;;1.80;1.60;;;15.70;18.30;;;;;;6260001;28;20478;-63
2023/04/06 14:10:28;;;;;;;6.37;4.80;;;15.70;17.90;;;;;;6254511;28;20815;-63
2023/04/06 14:13:31;;;;;;;3.47;1.53;;;15.80;46.80;;;;;;6256514;28;20459;-59
2023/04/06 14:16:34;;;;;;;1.80;1.30;;;16.40;21.90;;;;;;6253237;28;20479;-60
2023/04/06 14:19:37;;;;;;;3.47;3.13;;;16.30;19.60;;;;;;6252954;28;21023;-60
2023/04/06 14:22:41;;;;;;;3.63;1.83;;;15.90;19.70;;;;;;6252995;28;20479;-60
2023/04/06 14:25:46;;;;;;;1.43;1.30;;;15.70;19.50;;;;;;6252844;28;20474;-59
2023/04/06 14:28:50;;;;;;;1.53;1.10;;;15.60;19.50;;;;;;6255522;28;20472;-62
2023/04/06 14:31:59;;;;;;;2.03;1.80;;;15.40;18.70;;;;;;6269938;28;20466;-62
2023/04/06 14:35:02;;;;;;;2.10;1.90;;;15.10;19.00;;;;;;6278603;28;20870;-61
2023/04/06 14:38:07;;;;;;;1.80;1.50;;;15.10;19.00;;;;;;6280007;28;20466;-60
2023/04/06 14:41:18;;;;;;;1.83;1.60;;;14.90;18.40;;;;;;6276862;28;20834;-61
2023/04/06 14:44:21;;;;;;;3.30;1.70;;;14.80;19.10;;;;;;6258796;28;20479;-60
2023/04/06 14:47:25;;;;;;;2.20;1.80;;;14.80;19.80;;;;;;6251922;28;20477;-62
2023/04/06 14:50:28;;;;;;;2.13;1.90;;;14.80;19.80;;;;;;6251701;28;20482;-63
2023/04/06 14:53:31;;;;;;;1.70;1.60;;;14.80;20.10;;;;;;6251271;28;20846;-60
2023/04/06 14:56:38;;;;;;;1.63;1.43;;;14.70;19.90;;;;;;6252148;28;20487;-59
2023/04/06 14:59:41;;;;;;;1.67;1.57;;;14.70;20.20;;;;;;6251970;28;20475;-58
2023/04/06 15:02:44;;;;;;;1.80;1.33;;;14.80;20.20;;;;;;6251662;28;20471;-59
2023/04/06 15:05:48;;;;;;;2.83;2.20;;;14.80;20.00;;;;;;6251965;28;20990;-60
2023/04/06 15:08:51;;;;;;;3.53;2.40;;;14.70;20.10;;;;;;6251567;28;20494;-61
2023/04/06 15:11:56;;;;;;;3.00;1.33;;;14.60;19.80;;;;;;6251794;28;20475;-60
2023/04/06 15:15:00;;;;;;;1.77;1.50;;;14.60;19.60;;;;;;6250532;28;20485;-61
2023/04/06 15:18:04;;;;;;;2.03;1.87;;;14.50;20.00;;;;;;6252193;28;20467;-63
2023/04/06 15:21:07;;;;;;;2.10;1.77;;;14.60;19.70;;;;;;6251455;28;20478;-62
2023/04/06 15:24:10;;;;;;;2.70;1.57;;;14.60;19.70;;;;;;6251569;28;21036;-61
2023/04/06 15:27:15;;;;;;;2.07;1.60;;;14.60;20.80;;;;;;6255599;28;20966;-61
2023/04/06 15:30:18;;;;;;;1.60;1.50;;;14.60;20.80;;;;;;6255293;28;20479;-61
2023/04/06 15:33:21;;;;;;;1.33;1.23;;;14.60;20.60;;;;;;6262263;28;20470;-65
2023/04/06 15:36:28;;;;;;;1.87;1.20;;;14.60;20.50;;;;;;6251571;28;20502;-63
2023/04/06 15:39:31;;;;;;;2.50;1.40;;;14.70;25.50;;;;;;6251377;28;20837;-64
2023/04/06 15:42:36;;;;;;;2.27;1.70;;;14.60;20.90;;;;;;6272081;28;20477;-64
2023/04/06 15:45:40;;;;;;;3.33;1.60;;;14.60;20.80;;;;;;6268357;28;20475;-65
2023/04/06 15:48:43;;;;;;;2.30;1.67;;;14.60;20.50;;;;;;6251102;28;20588;-64
2023/04/06 15:51:47;;;;;;;2.70;2.47;;;14.60;20.10;;;;;;6250784;28;20466;-64
2023/04/06 15:54:51;;;;;;;1.57;1.47;;;14.70;20.20;;;;;;6249501;28;20771;-64
2023/04/06 15:57:55;;;;;;;2.03;1.57;;;14.70;20.90;;;;;;6257734;28;20448;-64
2023/04/06 16:00:58;;;;;;;3.00;1.40;;;14.70;20.30;;;;;;6251255;28;20459;-64
2023/04/06 16:04:02;;;;;;;4.00;1.53;;;14.60;20.70;;;;;;6250168;28;20485;-64